createdAt,value
2023-04-28T00:00:42.443Z,12.70
2023-04-28T00:03:10.847Z,12.70
2023-04-28T00:05:41.327Z,12.70
2023-04-28T00:08:09.952Z,12.70
2023-04-28T00:10:38.260Z,12.70
2023-04-28T00:13:06.542Z,12.70
2023-04-28T00:15:35.309Z,12.70
2023-04-28T00:18:03.655Z,12.60
2023-04-28T00:20:32.162Z,12.60
2023-04-28T00:23:01.835Z,12.60
2023-04-28T00:25:30.123Z,12.60
2023-04-28T00:27:58.439Z,12.60
2023-04-28T00:30:26.768Z,12.60
2023-04-28T00:32:55.939Z,12.60
2023-04-28T00:35:24.514Z,12.60
2023-04-28T00:37:52.726Z,12.60
2023-04-28T00:40:22.412Z,12.60
2023-04-28T00:42:50.855Z,12.60
2023-04-28T00:45:19.203Z,12.60
2023-04-28T00:47:47.544Z,12.60
2023-04-28T00:50:16.974Z,12.60
2023-04-28T00:52:45.273Z,12.60
2023-04-28T00:55:16.255Z,12.60
2023-04-28T00:57:46.359Z,12.60
2023-04-28T01:00:17.131Z,12.60
2023-04-28T01:02:45.656Z,12.60
2023-04-28T01:05:15.229Z,12.60
2023-04-28T01:07:43.514Z,12.60
2023-04-28T01:10:12.032Z,12.70
2023-04-28T01:12:40.338Z,12.80
2023-04-28T01:15:14.778Z,12.80
2023-04-28T01:17:43.310Z,12.80
2023-04-28T01:20:12.412Z,12.80
2023-04-28T01:22:40.716Z,12.80
2023-04-28T01:25:10.816Z,12.70
2023-04-28T01:27:39.078Z,12.70
2023-04-28T01:30:08.915Z,12.70
2023-04-28T01:32:37.346Z,12.70
2023-04-28T01:35:06.069Z,12.70
2023-04-28T01:37:34.363Z,12.80
2023-04-28T01:40:02.686Z,12.80
2023-04-28T01:42:32.465Z,12.80
2023-04-28T01:45:00.749Z,12.80
2023-04-28T01:47:29.016Z,12.80
2023-04-28T01:49:57.291Z,12.80
2023-04-28T01:52:25.556Z,12.80
2023-04-28T01:54:53.910Z,12.80
2023-04-28T01:57:22.520Z,12.90
2023-04-28T01:59:53.062Z,12.80
2023-04-28T02:02:21.790Z,12.80
2023-04-28T02:04:50.226Z,12.80
2023-04-28T02:07:18.635Z,12.80
2023-04-28T02:09:47.080Z,12.70
2023-04-28T02:12:15.315Z,12.70
2023-04-28T02:14:43.635Z,12.60
2023-04-28T02:17:13.372Z,12.60
2023-04-28T02:19:41.679Z,12.60
2023-04-28T02:22:09.939Z,12.50
2023-04-28T02:24:38.743Z,12.40
2023-04-28T02:27:07.161Z,12.40
2023-04-28T02:29:35.526Z,12.30
2023-04-28T02:32:04.655Z,12.30
2023-04-28T02:34:34.318Z,12.20
2023-04-28T02:37:02.975Z,12.20
2023-04-28T02:39:33.050Z,12.20
2023-04-28T02:42:01.328Z,12.10
2023-04-28T02:44:29.578Z,12.10
2023-04-28T02:46:58.025Z,12.10
2023-04-28T02:49:26.391Z,12.00
2023-04-28T02:51:56.149Z,12.00
2023-04-28T02:54:28.461Z,12.00
2023-04-28T02:56:57.353Z,11.90
2023-04-28T02:59:27.237Z,11.90
2023-04-28T03:01:55.523Z,11.90
2023-04-28T03:04:23.913Z,11.90
2023-04-28T03:06:52.432Z,11.90
2023-04-28T03:09:22.125Z,11.90
2023-04-28T03:11:50.505Z,11.90
2023-04-28T03:14:28.079Z,11.80
2023-04-28T03:16:57.965Z,11.80
2023-04-28T03:19:26.687Z,11.80
2023-04-28T03:21:55.037Z,11.70
2023-04-28T03:24:25.052Z,11.80
2023-04-28T03:26:53.438Z,11.80
2023-04-28T03:29:22.312Z,11.80
2023-04-28T03:31:51.208Z,11.80
2023-04-28T03:34:19.574Z,11.80
2023-04-28T03:36:48.120Z,11.80
2023-04-28T03:39:16.455Z,11.80
2023-04-28T03:41:46.190Z,11.80
2023-04-28T03:44:14.868Z,11.80
2023-04-28T03:46:43.353Z,11.70
2023-04-28T03:49:11.734Z,11.70
2023-04-28T03:51:39.982Z,11.70
2023-04-28T03:54:08.425Z,11.80
2023-04-28T03:56:36.752Z,11.80
2023-04-28T03:59:06.471Z,11.80
2023-04-28T04:01:34.737Z,11.80
2023-04-28T04:04:03.411Z,11.80
2023-04-28T04:06:32.351Z,11.90
2023-04-28T04:09:00.669Z,12.00
2023-04-28T04:11:29.004Z,12.00
2023-04-28T04:13:57.284Z,12.00
2023-04-28T04:16:27.215Z,12.10
2023-04-28T04:18:55.549Z,12.10
2023-04-28T04:21:23.933Z,12.20
2023-04-28T04:23:52.219Z,12.20
2023-04-28T04:26:24.507Z,12.20
2023-04-28T04:28:52.743Z,12.20
2023-04-28T04:31:22.760Z,12.30
2023-04-28T04:33:53.477Z,12.30
2023-04-28T04:36:21.927Z,12.30
2023-04-28T04:38:50.695Z,12.40
2023-04-28T04:41:21.253Z,12.50
2023-04-28T04:43:49.679Z,12.50
2023-04-28T04:46:18.044Z,12.50
2023-04-28T04:48:46.483Z,12.60
2023-04-28T04:51:16.247Z,12.50
2023-04-28T04:53:44.617Z,12.60
2023-04-28T04:56:12.950Z,12.60
2023-04-28T04:58:41.692Z,12.60
2023-04-28T05:01:10.357Z,12.60
2023-04-28T05:03:38.783Z,12.70
2023-04-28T05:06:07.472Z,12.70
2023-04-28T05:08:37.141Z,12.80
2023-04-28T05:11:05.582Z,12.80
2023-04-28T05:13:33.816Z,12.80
2023-04-28T05:16:02.206Z,12.80
2023-04-28T05:18:30.732Z,12.80
2023-04-28T05:20:59.058Z,12.80
2023-04-28T05:23:27.449Z,12.90
2023-04-28T05:25:57.192Z,12.80
2023-04-28T05:28:25.439Z,12.90
2023-04-28T05:30:53.760Z,12.90
2023-04-28T05:33:23.861Z,13.00
2023-04-28T05:35:52.402Z,13.00
2023-04-28T05:38:22.831Z,13.10
2023-04-28T05:40:51.797Z,13.10
2023-04-28T05:43:21.573Z,13.20
2023-04-28T05:45:50.005Z,13.30
2023-04-28T05:48:18.362Z,13.40
2023-04-28T05:50:46.859Z,13.50
2023-04-28T05:53:15.129Z,13.60
2023-04-28T05:55:43.545Z,13.70
2023-04-28T05:58:11.916Z,13.70
2023-04-28T06:00:41.666Z,13.80
2023-04-28T06:03:11.525Z,13.90
2023-04-28T06:05:40.552Z,14.00
2023-04-28T06:08:08.998Z,14.00
2023-04-28T06:10:37.317Z,14.10
2023-04-28T06:13:06.616Z,14.10
2023-04-28T06:15:35.307Z,14.20
2023-04-28T06:18:06.615Z,14.30
2023-04-28T06:20:35.761Z,14.30
2023-04-28T06:23:04.645Z,14.40
2023-04-28T06:25:33.049Z,14.40
2023-04-28T06:28:01.413Z,14.50
2023-04-28T06:30:29.908Z,14.60
2023-04-28T06:32:58.738Z,14.70
2023-04-28T06:35:29.423Z,14.70
2023-04-28T06:37:57.820Z,14.80
2023-04-28T06:40:26.130Z,14.80
2023-04-28T06:42:54.605Z,14.90
2023-04-28T06:45:22.948Z,15.00
2023-04-28T06:47:51.413Z,15.10
2023-04-28T06:50:19.772Z,15.20
2023-04-28T06:52:49.501Z,15.20
2023-04-28T06:55:18.556Z,15.30
2023-04-28T06:57:46.929Z,15.30
2023-04-28T07:00:16.251Z,15.40
2023-04-28T07:02:44.918Z,15.40
2023-04-28T07:05:16.047Z,15.50
2023-04-28T07:07:45.211Z,15.50
2023-04-28T07:10:15.812Z,15.60
2023-04-28T07:12:44.362Z,15.70
2023-04-28T07:15:13.345Z,15.70
2023-04-28T07:17:41.691Z,15.80
2023-04-28T07:20:10.840Z,15.90
2023-04-28T07:22:39.402Z,15.90
2023-04-28T07:25:08.018Z,16.00
2023-04-28T07:27:37.834Z,16.00
2023-04-28T07:30:25.210Z,16.10
2023-04-28T07:32:55.669Z,16.00
2023-04-28T07:35:24.255Z,16.10
2023-04-28T07:37:53.076Z,16.10
2023-04-28T07:40:21.823Z,16.10
2023-04-28T07:42:52.132Z,16.10
2023-04-28T07:45:20.677Z,16.10
2023-04-28T07:47:49.065Z,16.20
2023-04-28T07:50:18.130Z,16.20
2023-04-28T07:52:46.522Z,16.20
2023-04-28T07:55:14.880Z,16.20
2023-04-28T08:01:38.006Z,16.40
2023-04-28T08:04:06.614Z,16.50
2023-04-28T08:06:36.346Z,16.50
2023-04-28T08:09:06.107Z,16.50
2023-04-28T08:11:34.673Z,16.50
2023-04-28T08:14:03.518Z,16.50
2023-04-28T08:16:34.506Z,16.50
2023-04-28T08:19:04.344Z,16.60
2023-04-28T08:21:33.037Z,16.60
2023-04-28T08:24:01.853Z,16.60
2023-04-28T08:26:30.408Z,16.70
2023-04-28T08:28:58.756Z,16.70
2023-04-28T08:31:27.208Z,16.70
2023-04-28T08:33:55.806Z,16.80
2023-04-28T08:36:31.827Z,16.80
2023-04-28T08:39:01.631Z,17.00
2023-04-28T08:41:35.418Z,17.10
2023-04-28T08:44:03.783Z,17.10
2023-04-28T08:46:33.188Z,17.20
2023-04-28T08:49:03.683Z,17.10
2023-04-28T08:51:42.131Z,17.10
2023-04-28T08:54:25.262Z,17.10
2023-04-28T08:56:55.500Z,17.20
2023-04-28T08:59:24.115Z,17.20
2023-04-28T09:01:52.914Z,17.20
2023-04-28T09:04:22.165Z,17.20
2023-04-28T09:06:52.188Z,17.20
2023-04-28T09:09:22.582Z,17.20
2023-04-28T09:11:55.740Z,17.20
2023-04-28T09:14:24.595Z,17.20
2023-04-28T09:16:53.457Z,17.20
2023-04-28T09:19:22.505Z,17.20
2023-04-28T09:21:55.513Z,17.20
2023-04-28T09:24:31.880Z,17.20
2023-04-28T09:27:00.853Z,17.20
2023-04-28T09:29:29.512Z,17.20
2023-04-28T09:32:14.832Z,17.20
2023-04-28T09:34:47.004Z,17.20
2023-04-28T09:37:21.489Z,17.30
2023-04-28T09:39:51.877Z,17.40
2023-04-28T09:42:34.017Z,17.40
2023-04-28T09:45:03.470Z,17.40
2023-04-28T09:47:53.077Z,17.40
2023-04-28T09:50:21.532Z,17.50
2023-04-28T09:52:59.352Z,17.50
2023-04-28T09:55:29.636Z,17.60
2023-04-28T09:58:00.643Z,17.60
2023-04-28T10:00:29.904Z,17.60
2023-04-28T10:02:59.991Z,17.70
2023-04-28T10:05:47.562Z,17.70
2023-04-28T10:08:17.901Z,17.70
2023-04-28T10:10:51.048Z,17.70
2023-04-28T10:13:26.757Z,17.70
2023-04-28T10:15:58.353Z,17.70
2023-04-28T10:18:27.522Z,17.70
2023-04-28T10:20:59.679Z,17.80
2023-04-28T10:24:04.599Z,17.80
2023-04-28T10:27:06.043Z,17.80
2023-04-28T10:29:35.812Z,17.90
2023-04-28T10:32:17.801Z,17.90
2023-04-28T10:34:47.085Z,17.90
2023-04-28T10:37:17.172Z,17.90
2023-04-28T10:40:18.625Z,17.90
2023-04-28T10:42:55.073Z,17.90
2023-04-28T10:46:01.416Z,17.80
2023-04-28T10:48:55.352Z,17.90
2023-04-28T10:51:25.703Z,17.90
2023-04-28T10:54:09.612Z,18.10
2023-04-28T10:56:39.301Z,18.20
2023-04-28T10:59:29.201Z,18.20
2023-04-28T11:02:17.626Z,18.20
2023-04-28T11:05:12.067Z,18.20
2023-04-28T11:07:40.546Z,18.30
2023-04-28T11:10:09.729Z,18.50
2023-04-28T11:12:38.107Z,18.50
2023-04-28T11:15:17.499Z,18.40
2023-04-28T11:17:46.433Z,18.50
2023-04-28T11:20:15.775Z,18.60
2023-04-28T11:22:44.571Z,18.70
2023-04-28T11:25:12.858Z,18.60
2023-04-28T11:27:41.294Z,18.80
2023-04-28T11:34:34.437Z,18.90
2023-04-28T11:37:03.077Z,18.90
2023-04-28T11:39:33.455Z,18.80
2023-04-28T11:42:03.688Z,18.90
2023-04-28T11:44:33.058Z,18.90
2023-04-28T11:47:03.365Z,19.00
2023-04-28T11:49:42.835Z,19.10
2023-04-28T11:52:12.178Z,19.00
2023-04-28T11:54:43.324Z,19.00
2023-04-28T11:57:19.390Z,19.10
2023-04-28T11:59:49.018Z,19.10
2023-04-28T12:02:26.000Z,19.00
2023-04-28T12:04:55.895Z,19.10
2023-04-28T12:07:24.674Z,19.10
2023-04-28T12:10:16.018Z,19.20
2023-04-28T12:12:51.102Z,19.30
2023-04-28T12:15:21.561Z,19.30
2023-04-28T12:17:51.287Z,19.30
2023-04-28T12:20:36.796Z,19.40
2023-04-28T12:23:05.514Z,19.50
2023-04-28T12:25:35.474Z,19.50
2023-04-28T12:28:08.516Z,19.50
2023-04-28T12:30:42.160Z,19.50
2023-04-28T12:33:24.610Z,19.60
2023-04-28T12:35:56.054Z,19.60
2023-04-28T12:38:24.735Z,19.70
2023-04-28T12:40:53.951Z,19.70
2023-04-28T12:43:23.460Z,19.70
2023-04-28T12:45:53.567Z,19.70
2023-04-28T12:48:26.364Z,19.70
2023-04-28T12:50:56.164Z,19.80
2023-04-28T12:53:30.513Z,19.80
2023-04-28T12:55:59.457Z,19.90
2023-04-28T12:58:27.712Z,19.90
2023-04-28T13:00:56.038Z,20.00
2023-04-28T13:03:24.392Z,20.10
2023-04-28T13:05:53.166Z,20.10
2023-04-28T13:08:22.881Z,20.10
2023-04-28T13:10:51.176Z,20.20
2023-04-28T13:13:19.524Z,20.30
2023-04-28T13:15:47.897Z,20.40
2023-04-28T13:18:16.306Z,20.50
2023-04-28T13:20:44.852Z,20.50
2023-04-28T13:23:13.243Z,20.60
2023-04-28T13:25:42.969Z,20.60
2023-04-28T13:28:21.072Z,20.70
2023-04-28T13:30:58.823Z,20.80
2023-04-28T13:33:31.232Z,20.80
2023-04-28T13:35:59.828Z,20.80
2023-04-28T13:38:28.417Z,20.90
2023-04-28T13:40:58.282Z,20.90
2023-04-28T13:43:26.644Z,20.90
2023-04-28T13:45:56.177Z,20.80
2023-04-28T13:48:25.057Z,20.70
2023-04-28T13:50:53.366Z,20.60
2023-04-28T13:53:21.784Z,20.70
2023-04-28T13:56:10.531Z,20.60
2023-04-28T13:58:47.916Z,20.50
2023-04-28T14:01:16.509Z,20.50
2023-04-28T14:03:45.504Z,20.60
2023-04-28T14:06:23.832Z,20.60
2023-04-28T14:08:52.553Z,20.60
2023-04-28T14:11:22.662Z,20.80
2023-04-28T14:13:51.021Z,20.70
2023-04-28T14:16:19.435Z,20.80
2023-04-28T14:18:47.872Z,20.90
2023-04-28T14:21:16.702Z,20.80
2023-04-28T14:23:45.045Z,20.90
2023-04-28T14:26:13.524Z,21.10
2023-04-28T14:28:43.415Z,21.40
2023-04-28T14:31:11.865Z,21.90
2023-04-28T14:33:40.309Z,22.00
2023-04-28T14:36:09.278Z,21.90
2023-04-28T14:38:38.979Z,22.20
2023-04-28T14:41:08.648Z,22.50
2023-04-28T14:43:38.050Z,23.10
2023-04-28T14:46:08.094Z,23.00
2023-04-28T14:48:36.444Z,22.80
2023-04-28T14:51:04.961Z,22.50
2023-04-28T14:53:33.351Z,22.80
2023-04-28T14:56:17.180Z,22.50
2023-04-28T14:58:46.720Z,22.50
2023-04-28T15:01:17.605Z,22.60
2023-04-28T15:03:46.375Z,23.10
2023-04-28T15:06:18.033Z,22.90
2023-04-28T15:08:46.438Z,23.20
2023-04-28T15:11:14.824Z,22.90
2023-04-28T15:13:43.214Z,22.60
2023-04-28T15:16:11.618Z,22.40
2023-04-28T15:18:41.396Z,22.20
2023-04-28T15:21:09.661Z,22.10
2023-04-28T15:23:38.041Z,22.10
2023-04-28T15:26:06.731Z,21.90
2023-04-28T15:28:35.354Z,21.70
2023-04-28T15:31:05.167Z,21.50
2023-04-28T15:33:33.691Z,21.40
2023-04-28T15:36:03.398Z,21.20
2023-04-28T15:38:32.147Z,21.00
2023-04-28T15:41:03.194Z,20.90
2023-04-28T15:43:31.546Z,20.80
2023-04-28T15:46:01.110Z,20.70
2023-04-28T15:48:29.475Z,20.60
2023-04-28T15:50:58.631Z,20.50
2023-04-28T15:53:28.329Z,20.40
2023-04-28T15:55:56.608Z,20.30
2023-04-28T15:58:24.961Z,20.20
2023-04-28T16:00:53.284Z,20.20
2023-04-28T16:03:21.802Z,20.10
2023-04-28T16:05:50.272Z,19.90
2023-04-28T16:08:19.579Z,19.80
2023-04-28T16:10:49.501Z,19.70
2023-04-28T16:13:17.950Z,19.60
2023-04-28T16:15:46.625Z,19.40
2023-04-28T16:18:15.554Z,19.30
2023-04-28T16:20:44.287Z,19.30
2023-04-28T16:23:14.150Z,19.20
2023-04-28T16:25:42.874Z,19.10
2023-04-28T16:28:12.640Z,19.00
2023-04-28T16:30:41.117Z,19.00
2023-04-28T16:33:09.756Z,18.90
2023-04-28T16:35:38.178Z,18.80
2023-04-28T16:38:06.507Z,18.70
2023-04-28T16:40:34.825Z,18.60
2023-04-28T16:43:03.175Z,18.60
2023-04-28T16:46:08.264Z,18.50
2023-04-28T16:49:03.253Z,18.50
2023-04-28T16:51:34.239Z,18.40
2023-04-28T16:54:02.802Z,18.30
2023-04-28T16:56:32.530Z,18.30
2023-04-28T16:59:00.886Z,18.20
2023-04-28T17:01:31.719Z,18.20
2023-04-28T17:04:00.358Z,18.10
2023-04-28T17:06:29.374Z,18.10
2023-04-28T17:08:58.943Z,18.00
2023-04-28T17:11:27.786Z,18.00
2023-04-28T17:13:56.258Z,17.90
2023-04-28T17:16:24.820Z,17.80
2023-04-28T17:18:54.815Z,17.80
2023-04-28T17:21:26.394Z,17.80
2023-04-28T17:23:54.866Z,17.70
2023-04-28T17:26:23.429Z,17.60
2023-04-28T17:29:07.777Z,17.60
2023-04-28T17:31:38.787Z,17.60
2023-04-28T17:34:08.959Z,17.60
2023-04-28T17:36:37.546Z,17.50
2023-04-28T17:39:06.097Z,17.40
2023-04-28T17:41:34.902Z,17.40
2023-04-28T17:44:05.346Z,17.30
2023-04-28T17:46:33.825Z,17.30
2023-04-28T17:49:02.371Z,17.30
2023-04-28T17:51:32.559Z,17.20
2023-04-28T17:54:00.997Z,17.10
2023-04-28T17:56:29.844Z,17.10
2023-04-28T17:58:58.518Z,17.10
2023-04-28T18:01:27.140Z,17.00
2023-04-28T18:03:57.634Z,17.00
2023-04-28T18:06:26.189Z,16.90
2023-04-28T18:08:56.480Z,16.90
2023-04-28T18:11:24.951Z,16.80
2023-04-28T18:13:53.423Z,16.80
2023-04-28T18:16:22.106Z,16.70
2023-04-28T18:18:53.078Z,16.70
2023-04-28T18:21:21.525Z,16.60
2023-04-28T18:23:50.165Z,16.60
2023-04-28T18:26:22.350Z,16.50
2023-04-28T18:28:52.541Z,16.50
2023-04-28T18:31:21.330Z,16.50
2023-04-28T18:33:49.985Z,16.40
2023-04-28T18:36:18.371Z,16.30
2023-04-28T18:38:54.522Z,16.30
2023-04-28T18:41:24.877Z,16.20
2023-04-28T18:43:53.265Z,16.20
2023-04-28T18:46:21.861Z,16.00
2023-04-28T18:48:50.415Z,16.00
2023-04-28T18:51:19.695Z,16.00
2023-04-28T18:53:50.945Z,15.90
2023-04-28T18:56:21.076Z,15.90
2023-04-28T18:58:51.507Z,15.90
2023-04-28T19:01:20.121Z,15.80
2023-04-28T19:03:48.616Z,15.80
2023-04-28T19:06:26.212Z,15.80
2023-04-28T19:08:54.657Z,15.70
2023-04-28T19:11:24.319Z,15.70
2023-04-28T19:13:56.959Z,15.70
2023-04-28T19:16:25.716Z,15.70
2023-04-28T19:18:54.396Z,15.60
2023-04-28T19:21:22.832Z,15.60
2023-04-28T19:23:51.393Z,15.50
2023-04-28T19:26:19.919Z,15.50
2023-04-28T19:28:48.407Z,15.50
2023-04-28T19:31:18.389Z,15.50
2023-04-28T19:33:47.136Z,15.50
2023-04-28T19:36:15.756Z,15.40
2023-04-28T19:38:46.761Z,15.40
2023-04-28T19:41:15.254Z,15.40
2023-04-28T19:43:43.954Z,15.40
2023-04-28T19:46:13.179Z,15.40
2023-04-28T19:48:46.048Z,15.40
2023-04-28T19:51:14.814Z,15.40
2023-04-28T19:53:46.654Z,15.40
2023-04-28T19:56:15.203Z,15.40
2023-04-28T19:58:43.627Z,15.40
2023-04-28T20:01:12.080Z,15.40
2023-04-28T20:03:40.620Z,15.30
2023-04-28T20:06:16.447Z,15.30
2023-04-28T20:08:45.922Z,15.30
2023-04-28T20:11:14.470Z,15.30
2023-04-28T20:13:42.813Z,15.20
2023-04-28T20:16:11.686Z,15.20
2023-04-28T20:18:40.258Z,15.20
2023-04-28T20:21:10.810Z,15.20
2023-04-28T20:23:41.067Z,15.20
2023-04-28T20:26:15.210Z,15.10
2023-04-28T20:28:45.204Z,15.10
2023-04-28T20:31:13.770Z,15.10
2023-04-28T20:33:42.359Z,15.10
2023-04-28T20:36:13.714Z,15.10
2023-04-28T20:38:42.573Z,15.10
2023-04-28T20:41:11.051Z,15.00
2023-04-28T20:43:41.246Z,15.00
2023-04-28T20:46:13.918Z,15.00
2023-04-28T20:48:42.784Z,15.00
2023-04-28T20:51:20.723Z,15.00
2023-04-28T20:53:51.067Z,15.00
2023-04-28T20:56:19.480Z,15.00
2023-04-28T20:58:48.170Z,14.90
2023-04-28T21:01:16.721Z,15.00
2023-04-28T21:03:45.407Z,14.90
2023-04-28T21:06:15.431Z,14.90
2023-04-28T21:08:44.180Z,14.90
2023-04-28T21:11:16.630Z,14.90
2023-04-28T21:13:47.115Z,14.90
2023-04-28T21:16:19.410Z,14.90
2023-04-28T21:18:50.001Z,14.90
2023-04-28T21:21:19.925Z,14.90
2023-04-28T21:23:48.642Z,14.90
2023-04-28T21:26:17.339Z,14.80
2023-04-28T21:28:45.773Z,14.80
2023-04-28T21:31:14.210Z,14.80
2023-04-28T21:33:42.554Z,14.80
2023-04-28T21:36:11.082Z,14.80
2023-04-28T21:38:40.919Z,14.80
2023-04-28T21:41:09.402Z,14.80
2023-04-28T21:43:37.751Z,14.80
2023-04-28T21:48:37.629Z,14.70
2023-04-28T21:51:06.309Z,14.70
2023-04-28T21:53:34.687Z,14.70
2023-04-28T21:56:05.788Z,14.70
2023-04-28T21:58:35.875Z,14.70
2023-04-28T22:01:06.563Z,14.70
2023-04-28T22:03:36.569Z,14.60
2023-04-28T22:06:05.796Z,14.60
2023-04-28T22:08:34.426Z,14.60
2023-04-28T22:11:04.793Z,14.60
2023-04-28T22:13:33.396Z,14.60
2023-04-28T22:16:02.140Z,14.60
2023-04-28T22:18:30.907Z,14.50
2023-04-28T22:20:59.358Z,14.50
2023-04-28T22:23:27.808Z,14.50
2023-04-28T22:25:59.793Z,14.50
2023-04-28T22:28:29.657Z,14.50
2023-04-28T22:30:58.201Z,14.50
2023-04-28T22:33:26.946Z,14.40
2023-04-28T22:35:55.311Z,14.40
2023-04-28T22:38:23.702Z,14.40
2023-04-28T22:40:52.634Z,14.40
2023-04-28T22:43:21.007Z,14.40
2023-04-28T22:45:51.284Z,14.30
2023-04-28T22:48:19.866Z,14.30
2023-04-28T22:50:48.330Z,14.40
2023-04-28T22:53:16.803Z,14.30
2023-04-28T22:55:45.207Z,14.30
2023-04-28T22:58:13.694Z,14.30
2023-04-28T23:00:42.883Z,14.30
2023-04-28T23:03:12.886Z,14.30
2023-04-28T23:05:41.380Z,14.30
2023-04-28T23:08:09.771Z,14.30
2023-04-28T23:10:38.178Z,14.20
2023-04-28T23:13:06.655Z,14.30
2023-04-28T23:15:35.029Z,14.20
2023-04-28T23:18:03.587Z,14.20
2023-04-28T23:20:34.852Z,14.20
2023-04-28T23:23:03.413Z,14.20
2023-04-28T23:25:32.024Z,14.20
2023-04-28T23:28:00.412Z,14.20
2023-04-28T23:30:28.900Z,14.10
2023-04-28T23:32:57.450Z,14.10
2023-04-28T23:35:25.934Z,14.10
2023-04-28T23:37:55.871Z,14.10
2023-04-28T23:40:24.263Z,14.10
2023-04-28T23:42:53.096Z,14.10
2023-04-28T23:45:21.480Z,14.10
2023-04-28T23:47:49.969Z,14.00
2023-04-28T23:50:18.823Z,14.00
2023-04-28T23:52:47.254Z,14.00
2023-04-28T23:55:17.354Z,14.00
2023-04-28T23:57:45.816Z,13.90
